Springfield, Ohio
Current Conditions -  °F | °C
As of 4:56 PM on Saturday 25 Oct 2014 (Local Time) from KSGH Reporting Station
Clear Clear  
Wind Chill: 74°   Ceiling: Unl
Heat Index: 74°   Visibility: 10mi
Dew Point: 53°   Wind: 15mph
Humidity: 48%   Direction: 250°WSW
Pressure: 29.89"   Gusts: 25mph
Location:  39.93°N, 83.81°W
Report Text: KSGH 252056Z AUTO 25013G22KT 10SM CLR 23/12 A2989 RMK AO2 55009 T02330116 SLP118
Loading
Personal Weather Stations






























Interactive Weather Map
Tropical Storm Tracking
New forecast layout! Learn more

10-Day Weather Forecast

Advertisements
Track Severe Weather on mobile